Time;durP1;ratioP1;P1;durP2;ratioP2;P2;SDS_P1;SDS_P2;PMS_P1;PMS_P2;Temp;Humidity;BMP_temperature;BMP_pressure;BME280_temperature;BME280_humidity;BME280_pressure;Samples;Min_cycle;Max_cycle;Signal;HPM_P1;HPM_P2
2023/09/01 00:01:52;;;;;;;0.10;0.10;;;;;;;;;;6159098;23;20013;-86
2023/09/01 00:04:18;;;;;;;0.10;0.10;;;;;;;;;;6159317;23;20020;-86
2023/09/01 00:06:44;;;;;;;0.10;0.10;;;;;;;;;;6134715;23;20036;-87
2023/09/01 00:09:10;;;;;;;0.10;0.10;;;;;;;;;;6134698;23;20017;-86
2023/09/01 00:11:36;;;;;;;0.10;0.10;;;;;;;;;;6159254;23;20087;-87
2023/09/01 00:14:03;;;;;;;0.10;0.10;;;;;;;;;;6158984;23;20036;-87
2023/09/01 00:16:30;;;;;;;0.10;0.10;;;;;;;;;;6159432;23;20009;-87
2023/09/01 00:18:55;;;;;;;0.10;0.10;;;;;;;;;;6134744;23;20013;-87
2023/09/01 00:21:23;;;;;;;0.10;0.10;;;;;;;;;;6134944;23;20020;-87
2023/09/01 00:23:49;;;;;;;0.10;0.10;;;;;;;;;;6183452;23;20060;-87
2023/09/01 00:26:15;;;;;;;0.10;0.10;;;;;;;;;;6183783;23;20008;-87
2023/09/01 00:28:41;;;;;;;0.10;0.10;;;;;;;;;;6159442;23;20013;-86
2023/09/01 00:31:06;;;;;;;0.10;0.10;;;;;;;;;;6183589;23;20017;-86
2023/09/01 00:33:32;;;;;;;0.10;0.10;;;;;;;;;;6185423;23;20017;-87
2023/09/01 00:35:59;;;;;;;0.10;0.10;;;;;;;;;;6183778;23;20446;-87
2023/09/01 00:38:25;;;;;;;0.10;0.10;;;;;;;;;;6159349;23;20013;-87
2023/09/01 00:40:51;;;;;;;0.10;0.10;;;;;;;;;;6158844;23;20067;-86
2023/09/01 00:43:17;;;;;;;0.10;0.10;;;;;;;;;;6134354;23;20426;-86
2023/09/01 00:45:43;;;;;;;0.10;0.10;;;;;;;;;;6134043;23;20051;-87
2023/09/01 00:48:09;;;;;;;0.15;0.15;;;;;;;;;;6158880;23;20013;-87
2023/09/01 00:50:36;;;;;;;0.10;0.10;;;;;;;;;;6158831;23;20009;-87
2023/09/01 00:53:02;;;;;;;0.10;0.10;;;;;;;;;;6185421;23;20130;-87
2023/09/01 00:55:29;;;;;;;0.10;0.10;;;;;;;;;;6159390;23;20060;-87
2023/09/01 00:57:55;;;;;;;0.10;0.10;;;;;;;;;;6158820;23;20088;-87
2023/09/01 01:00:21;;;;;;;0.10;0.10;;;;;;;;;;6158743;23;20517;-87
2023/09/01 01:02:47;;;;;;;0.10;0.10;;;;;;;;;;6185065;23;20021;-87
2023/09/01 01:05:14;;;;;;;0.10;0.10;;;;;;;;;;6158517;23;20040;-87
2023/09/01 01:07:43;;;;;;;0.10;0.10;;;;;;;;;;6183148;23;20040;-87
2023/09/01 01:10:20;;;;;;;0.10;0.10;;;;;;;;;;6158460;23;20013;-87
2023/09/01 01:12:50;;;;;;;0.10;0.10;;;;;;;;;;6158539;23;20675;-87
2023/09/01 01:15:16;;;;;;;0.10;0.10;;;;;;;;;;6134399;23;20098;-87
2023/09/01 01:17:42;;;;;;;0.10;0.10;;;;;;;;;;6159020;23;20023;-88
2023/09/01 01:20:27;;;;;;;0.10;0.10;;;;;;;;;;6158912;23;20024;-87
2023/09/01 01:23:09;;;;;;;0.10;0.10;;;;;;;;;;6184536;23;20096;-87
2023/09/01 01:25:35;;;;;;;0.10;0.10;;;;;;;;;;6184547;23;20024;-87
2023/09/01 01:28:08;;;;;;;0.10;0.10;;;;;;;;;;6134139;23;20017;-87
2023/09/01 01:30:34;;;;;;;;;;;;;;;;;;6134386;23;20013;-86
2023/09/01 01:32:59;;;;;;;0.10;0.10;;;;;;;;;;6185115;23;19955;-87
2023/09/01 01:35:25;;;;;;;0.10;0.10;;;;;;;;;;6158671;23;20043;-87
2023/09/01 01:38:07;;;;;;;0.10;0.10;;;;;;;;;;6184978;23;20009;-87
2023/09/01 01:40:33;;;;;;;0.10;0.10;;;;;;;;;;6183114;23;20018;-87
2023/09/01 01:43:01;;;;;;;0.10;0.10;;;;;;;;;;6133497;23;20017;-87
2023/09/01 01:45:27;;;;;;;0.10;0.10;;;;;;;;;;6158213;23;20088;-87
2023/09/01 01:47:53;;;;;;;0.10;0.10;;;;;;;;;;6158656;23;20017;-87
2023/09/01 01:50:19;;;;;;;0.10;0.10;;;;;;;;;;6133699;23;20013;-87
2023/09/01 01:52:45;;;;;;;0.10;0.10;;;;;;;;;;6158319;23;20447;-87
2023/09/01 01:55:11;;;;;;;0.10;0.10;;;;;;;;;;6158037;23;20020;-88
2023/09/01 01:57:36;;;;;;;0.10;0.10;;;;;;;;;;6134108;23;20497;-87
2023/09/01 02:00:11;;;;;;;0.10;0.10;;;;;;;;;;6184889;23;20331;-87
2023/09/01 02:02:40;;;;;;;0.10;0.10;;;;;;;;;;6133331;23;20020;-87
2023/09/01 02:05:06;;;;;;;0.10;0.10;;;;;;;;;;6158237;23;20020;-87
2023/09/01 02:07:35;;;;;;;0.10;0.10;;;;;;;;;;6158389;23;20004;-87
2023/09/01 02:10:05;;;;;;;0.10;0.10;;;;;;;;;;6158117;23;20009;-87
2023/09/01 02:12:32;;;;;;;0.10;0.10;;;;;;;;;;6134445;23;20108;-87
2023/09/01 02:14:58;;;;;;;0.10;0.10;;;;;;;;;;6133575;23;20117;-86
2023/09/01 02:17:24;;;;;;;0.10;0.10;;;;;;;;;;6133542;23;20397;-86
2023/09/01 02:19:50;;;;;;;0.10;0.10;;;;;;;;;;6133586;23;20092;-87
2023/09/01 02:22:16;;;;;;;0.10;0.10;;;;;;;;;;6158027;23;20136;-87
2023/09/01 02:24:42;;;;;;;0.10;0.10;;;;;;;;;;6158348;23;20334;-87
2023/09/01 02:27:08;;;;;;;0.10;0.10;;;;;;;;;;6133394;23;20013;-87
2023/09/01 02:29:34;;;;;;;0.10;0.10;;;;;;;;;;6182870;23;20009;-88
2023/09/01 02:32:00;;;;;;;0.10;0.10;;;;;;;;;;6182689;23;20463;-87
2023/09/01 02:34:26;;;;;;;0.10;0.10;;;;;;;;;;6158490;23;20395;-87
2023/09/01 02:36:52;;;;;;;0.10;0.10;;;;;;;;;;6158446;23;20020;-87
2023/09/01 02:39:18;;;;;;;0.10;0.10;;;;;;;;;;6182661;23;20451;-87
2023/09/01 02:41:44;;;;;;;0.10;0.10;;;;;;;;;;6132990;23;20013;-87
2023/09/01 02:44:10;;;;;;;0.10;0.10;;;;;;;;;;6157959;23;20358;-86
2023/09/01 02:46:36;;;;;;;0.10;0.10;;;;;;;;;;6184613;23;20076;-87
2023/09/01 02:49:03;;;;;;;0.10;0.10;;;;;;;;;;6133436;23;20016;-87
2023/09/01 02:51:29;;;;;;;0.10;0.10;;;;;;;;;;6184526;23;20019;-87
2023/09/01 02:53:55;;;;;;;0.10;0.10;;;;;;;;;;6133267;23;20016;-86
2023/09/01 02:56:21;;;;;;;0.10;0.10;;;;;;;;;;6133247;23;20020;-86
2023/09/01 02:58:47;;;;;;;0.10;0.10;;;;;;;;;;6184331;23;20143;-86
2023/09/01 03:01:13;;;;;;;0.10;0.10;;;;;;;;;;6133243;23;20068;-88
2023/09/01 03:03:42;;;;;;;0.10;0.10;;;;;;;;;;6157922;23;20042;-87
2023/09/01 03:06:08;;;;;;;0.55;0.20;;;;;;;;;;6158524;23;20017;-87
2023/09/01 03:08:34;;;;;;;0.10;0.10;;;;;;;;;;6182440;23;20052;-88
2023/09/01 03:11:01;;;;;;;0.10;0.10;;;;;;;;;;6133054;23;20067;-88
2023/09/01 03:13:27;;;;;;;0.10;0.10;;;;;;;;;;6182389;23;20097;-88
2023/09/01 03:15:56;;;;;;;0.10;0.10;;;;;;;;;;6158391;23;20044;-86
2023/09/01 03:18:22;;;;;;;0.10;0.10;;;;;;;;;;6157845;23;20017;-86
2023/09/01 03:20:48;;;;;;;0.10;0.10;;;;;;;;;;6158094;23;20316;-86
2023/09/01 03:23:14;;;;;;;0.10;0.10;;;;;;;;;;6157734;23;20461;-86
2023/09/01 03:25:41;;;;;;;0.10;0.10;;;;;;;;;;6184344;23;20017;-86
2023/09/01 03:28:07;;;;;;;0.10;0.10;;;;;;;;;;6157731;23;20013;-87
2023/09/01 03:30:33;;;;;;;0.10;0.10;;;;;;;;;;6157692;23;20020;-86
2023/09/01 03:32:59;;;;;;;0.10;0.10;;;;;;;;;;6185737;23;20088;-88
2023/09/01 03:35:25;;;;;;;0.10;0.10;;;;;;;;;;6159422;23;20013;-86
2023/09/01 03:37:51;;;;;;;0.10;0.10;;;;;;;;;;6159520;23;20088;-87
2023/09/01 03:40:17;;;;;;;0.10;0.10;;;;;;;;;;6159986;23;20017;-87
2023/09/01 03:42:43;;;;;;;0.10;0.10;;;;;;;;;;6159762;23;20017;-87
2023/09/01 03:45:09;;;;;;;0.10;0.10;;;;;;;;;;6184199;23;20019;-87
2023/09/01 03:47:35;;;;;;;0.10;0.10;;;;;;;;;;6159888;23;20278;-85
2023/09/01 03:50:01;;;;;;;0.10;0.10;;;;;;;;;;6159435;23;20521;-86
2023/09/01 03:52:27;;;;;;;0.10;0.10;;;;;;;;;;6184089;23;20017;-85
2023/09/01 03:54:53;;;;;;;0.10;0.10;;;;;;;;;;6185417;23;20017;-85
2023/09/01 03:57:19;;;;;;;0.10;0.10;;;;;;;;;;6183931;23;20021;-86
2023/09/01 03:59:47;;;;;;;0.10;0.10;;;;;;;;;;6159446;23;20017;-86
2023/09/01 04:02:13;;;;;;;0.10;0.10;;;;;;;;;;6134334;23;20020;-85
2023/09/01 04:04:39;;;;;;;0.10;0.10;;;;;;;;;;6159156;23;20013;-87
2023/09/01 04:07:06;;;;;;;0.10;0.10;;;;;;;;;;6134589;23;20450;-87
2023/09/01 04:09:32;;;;;;;0.10;0.10;;;;;;;;;;6134774;23;20013;-86
2023/09/01 04:11:58;;;;;;;0.10;0.10;;;;;;;;;;6159203;23;20091;-86
2023/09/01 04:14:24;;;;;;;0.10;0.10;;;;;;;;;;6159529;23;20013;-86
2023/09/01 04:16:51;;;;;;;0.10;0.10;;;;;;;;;;6135038;23;20009;-87
2023/09/01 04:19:17;;;;;;;0.10;0.10;;;;;;;;;;6159142;23;20013;-85
2023/09/01 04:21:43;;;;;;;0.10;0.10;;;;;;;;;;6159149;23;20012;-85
2023/09/01 04:24:10;;;;;;;0.10;0.10;;;;;;;;;;6134378;23;20098;-86
2023/09/01 04:26:36;;;;;;;0.10;0.10;;;;;;;;;;6134132;23;20017;-86
2023/09/01 04:29:03;;;;;;;0.10;0.10;;;;;;;;;;6158937;23;20032;-85
2023/09/01 04:31:29;;;;;;;0.10;0.10;;;;;;;;;;6158844;23;20013;-86
2023/09/01 04:33:55;;;;;;;0.10;0.10;;;;;;;;;;6185354;23;20330;-85
2023/09/01 04:36:21;;;;;;;0.10;0.10;;;;;;;;;;6183619;23;20028;-85
2023/09/01 04:38:47;;;;;;;0.10;0.10;;;;;;;;;;6134322;23;20013;-86
2023/09/01 04:41:13;;;;;;;0.10;0.10;;;;;;;;;;6183675;23;20075;-86
2023/09/01 04:43:39;;;;;;;0.10;0.10;;;;;;;;;;6184674;23;20021;-87
2023/09/01 04:46:05;;;;;;;0.10;0.10;;;;;;;;;;6158891;23;20084;-87
2023/09/01 04:48:31;;;;;;;0.10;0.10;;;;;;;;;;6158865;23;20076;-87
2023/09/01 04:51:02;;;;;;;0.10;0.10;;;;;;;;;;6158809;23;20016;-86
2023/09/01 04:53:28;;;;;;;0.10;0.10;;;;;;;;;;6134921;23;20442;-86
2023/09/01 04:55:54;;;;;;;0.10;0.10;;;;;;;;;;6158802;23;20084;-87
2023/09/01 04:58:20;;;;;;;0.10;0.10;;;;;;;;;;6134022;23;20067;-87
2023/09/01 05:00:51;;;;;;;0.10;0.10;;;;;;;;;;6158914;23;20031;-87
2023/09/01 05:03:17;;;;;;;0.10;0.10;;;;;;;;;;6133973;23;20023;-87
2023/09/01 05:05:43;;;;;;;0.10;0.10;;;;;;;;;;6158509;23;20040;-87
2023/09/01 05:08:09;;;;;;;0.10;0.10;;;;;;;;;;6134494;23;20017;-87
2023/09/01 05:10:35;;;;;;;0.10;0.10;;;;;;;;;;6185153;23;20048;-87
2023/09/01 05:13:01;;;;;;;0.13;0.13;;;;;;;;;;6133842;23;20027;-87
2023/09/01 05:15:27;;;;;;;0.10;0.10;;;;;;;;;;6158355;23;20103;-87
2023/09/01 05:17:53;;;;;;;0.10;0.10;;;;;;;;;;6158492;23;20017;-87
2023/09/01 05:20:19;;;;;;;0.20;0.20;;;;;;;;;;6158961;23;20087;-87
2023/09/01 05:22:45;;;;;;;0.10;0.10;;;;;;;;;;6185010;23;20370;-87
2023/09/01 05:25:11;;;;;;;0.10;0.10;;;;;;;;;;6158180;23;20071;-87
2023/09/01 05:27:37;;;;;;;0.10;0.10;;;;;;;;;;6158851;23;20009;-87
2023/09/01 05:30:03;;;;;;;0.10;0.10;;;;;;;;;;6158809;23;20338;-87
2023/09/01 05:32:29;;;;;;;0.10;0.10;;;;;;;;;;6158451;23;20020;-87
2023/09/01 05:34:55;;;;;;;0.10;0.10;;;;;;;;;;6158324;23;20088;-87
2023/09/01 05:37:21;;;;;;;0.10;0.10;;;;;;;;;;6184730;23;20071;-87
2023/09/01 05:39:47;;;;;;;0.10;0.10;;;;;;;;;;6158538;23;20016;-87
2023/09/01 05:42:16;;;;;;;0.10;0.10;;;;;;;;;;6158547;23;20505;-87
2023/09/01 05:44:42;;;;;;;0.10;0.10;;;;;;;;;;6159163;23;20058;-87
2023/09/01 05:47:08;;;;;;;0.10;0.10;;;;;;;;;;6158680;23;20482;-86
2023/09/01 05:49:34;;;;;;;0.10;0.10;;;;;;;;;;6182793;23;20443;-87
2023/09/01 05:52:00;;;;;;;0.10;0.10;;;;;;;;;;6161985;23;20017;-87
2023/09/01 05:54:26;;;;;;;0.10;0.10;;;;;;;;;;6142673;23;20013;-87
2023/09/01 05:56:52;;;;;;;0.10;0.10;;;;;;;;;;6158495;23;20012;-87
2023/09/01 05:59:18;;;;;;;0.10;0.10;;;;;;;;;;6134184;23;20016;-87
2023/09/01 06:01:44;;;;;;;0.10;0.10;;;;;;;;;;6158382;23;20017;-87
2023/09/01 06:04:10;;;;;;;0.10;0.10;;;;;;;;;;6157873;23;20017;-87
2023/09/01 06:06:36;;;;;;;0.10;0.10;;;;;;;;;;6133706;23;20446;-87
2023/09/01 06:09:04;;;;;;;0.10;0.10;;;;;;;;;;6134061;23;20074;-87
2023/09/01 06:11:30;;;;;;;0.10;0.10;;;;;;;;;;6158865;23;20020;-86
2023/09/01 06:13:56;;;;;;;0.10;0.10;;;;;;;;;;6158158;23;20454;-87
2023/09/01 06:16:22;;;;;;;0.10;0.10;;;;;;;;;;6182792;23;20091;-86
2023/09/01 06:18:48;;;;;;;0.10;0.10;;;;;;;;;;6133726;23;20343;-87
2023/09/01 06:21:17;;;;;;;0.10;0.10;;;;;;;;;;6182712;23;20021;-86
2023/09/01 06:23:44;;;;;;;0.10;0.10;;;;;;;;;;6182675;23;20075;-87
2023/09/01 06:26:20;;;;;;;0.10;0.10;;;;;;;;;;6158454;23;20021;-87
2023/09/01 06:28:46;;;;;;;0.10;0.10;;;;;;;;;;6184642;23;20009;-87
2023/09/01 06:31:13;;;;;;;0.10;0.10;;;;;;;;;;6158502;23;20013;-87
2023/09/01 06:33:43;;;;;;;0.10;0.10;;;;;;;;;;6158046;23;20013;-87
2023/09/01 06:36:10;;;;;;;0.10;0.10;;;;;;;;;;6158242;23;20017;-86
2023/09/01 06:38:36;;;;;;;0.10;0.10;;;;;;;;;;6182588;23;20021;-87
2023/09/01 06:41:03;;;;;;;0.10;0.10;;;;;;;;;;6182653;23;20107;-86
2023/09/01 06:43:29;;;;;;;0.10;0.10;;;;;;;;;;6133164;23;20017;-86
2023/09/01 06:45:55;;;;;;;0.10;0.10;;;;;;;;;;6182578;23;20046;-87
2023/09/01 06:48:21;;;;;;;0.10;0.10;;;;;;;;;;6184524;23;20020;-87
2023/09/01 06:50:47;;;;;;;0.10;0.10;;;;;;;;;;6133254;23;20017;-90
2023/09/01 06:53:13;;;;;;;0.10;0.10;;;;;;;;;;6158044;23;20024;-89
2023/09/01 06:55:39;;;;;;;0.10;0.10;;;;;;;;;;6156700;23;20111;-88
2023/09/01 06:58:05;;;;;;;0.10;0.10;;;;;;;;;;6184400;23;20434;-87
2023/09/01 07:00:31;;;;;;;0.10;0.10;;;;;;;;;;6157815;23;20017;-88
2023/09/01 07:02:57;;;;;;;0.10;0.10;;;;;;;;;;6182279;23;20017;-88
2023/09/01 07:05:24;;;;;;;0.10;0.10;;;;;;;;;;6157626;23;20488;-88
2023/09/01 07:07:50;;;;;;;0.10;0.10;;;;;;;;;;6159458;23;20013;-88
2023/09/01 07:10:16;;;;;;;0.10;0.10;;;;;;;;;;6159922;23;20021;-88
2023/09/01 07:12:43;;;;;;;0.10;0.10;;;;;;;;;;6135362;23;20016;-88
2023/09/01 07:15:09;;;;;;;0.10;0.10;;;;;;;;;;6159484;23;20020;-87
2023/09/01 07:17:35;;;;;;;0.10;0.10;;;;;;;;;;6160087;23;20012;-88
2023/09/01 07:20:01;;;;;;;0.10;0.10;;;;;;;;;;6186142;23;20013;-88
2023/09/01 07:22:27;;;;;;;0.20;0.20;;;;;;;;;;6159673;23;20013;-88
2023/09/01 07:24:53;;;;;;;0.10;0.10;;;;;;;;;;6158886;23;20016;-88
2023/09/01 07:27:19;;;;;;;0.10;0.10;;;;;;;;;;6184412;23;20020;-90
2023/09/01 07:29:48;;;;;;;0.10;0.10;;;;;;;;;;6159391;23;20013;-88
2023/09/01 07:32:14;;;;;;;0.10;0.10;;;;;;;;;;6159408;23;20713;-88
2023/09/01 07:34:40;;;;;;;0.10;0.10;;;;;;;;;;6134477;23;20045;-88
2023/09/01 07:37:07;;;;;;;0.10;0.10;;;;;;;;;;6184203;23;20017;-89
2023/09/01 07:39:32;;;;;;;0.10;0.10;;;;;;;;;;6134966;23;20024;-87
2023/09/01 07:41:58;;;;;;;0.10;0.10;;;;;;;;;;6185886;23;20013;-87
2023/09/01 07:44:25;;;;;;;0.10;0.10;;;;;;;;;;6159453;23;20352;-87
2023/09/01 07:46:51;;;;;;;0.10;0.10;;;;;;;;;;6185972;23;20324;-88
2023/09/01 07:49:20;;;;;;;0.20;0.20;;;;;;;;;;6160965;23;20099;-88
2023/09/01 07:51:46;;;;;;;0.20;0.20;;;;;;;;;;6134945;23;20009;-88
2023/09/01 07:54:12;;;;;;;0.20;0.20;;;;;;;;;;6159274;23;20036;-89
2023/09/01 07:56:38;;;;;;;0.10;0.10;;;;;;;;;;6134805;23;20442;-88
2023/09/01 07:59:04;;;;;;;0.10;0.10;;;;;;;;;;6135089;23;20056;-88
2023/09/01 08:01:30;;;;;;;0.10;0.10;;;;;;;;;;6135192;23;20438;-89
2023/09/01 08:03:59;;;;;;;0.10;0.10;;;;;;;;;;6159275;23;20013;-89
2023/09/01 08:06:26;;;;;;;0.15;0.15;;;;;;;;;;6134683;23;20017;-89
2023/09/01 08:08:52;;;;;;;0.10;0.10;;;;;;;;;;6183712;23;20084;-88
2023/09/01 08:11:18;;;;;;;0.13;0.13;;;;;;;;;;6159545;23;20060;-89
2023/09/01 08:13:44;;;;;;;0.10;0.10;;;;;;;;;;6183837;23;20017;-89
2023/09/01 08:16:10;;;;;;;0.20;0.20;;;;;;;;;;6185647;23;20017;-88
2023/09/01 08:18:36;;;;;;;0.10;0.10;;;;;;;;;;6162051;23;20015;-87
2023/09/01 08:21:05;;;;;;;0.13;0.13;;;;;;;;;;6134667;23;20016;-87
2023/09/01 08:23:31;;;;;;;0.10;0.10;;;;;;;;;;6158880;23;20417;-87
2023/09/01 08:25:57;;;;;;;0.10;0.10;;;;;;;;;;6159435;23;20016;-87
2023/09/01 08:28:23;;;;;;;0.10;0.10;;;;;;;;;;6183745;23;20390;-87
2023/09/01 08:30:49;;;;;;;0.10;0.10;;;;;;;;;;6158931;23;20370;-86
2023/09/01 08:33:17;;;;;;;0.10;0.10;;;;;;;;;;6159353;23;20042;-88
2023/09/01 08:35:43;;;;;;;0.10;0.10;;;;;;;;;;6134159;23;20052;-89
2023/09/01 08:38:09;;;;;;;0.10;0.10;;;;;;;;;;6159085;23;20017;-88
2023/09/01 08:40:35;;;;;;;0.20;0.20;;;;;;;;;;6183407;23;20405;-88
2023/09/01 08:43:01;;;;;;;0.10;0.10;;;;;;;;;;6158593;23;20016;-88
2023/09/01 08:45:27;;;;;;;0.13;0.13;;;;;;;;;;6158931;23;20316;-88
2023/09/01 08:47:53;;;;;;;0.10;0.10;;;;;;;;;;6159183;23;20080;-89
2023/09/01 08:50:21;;;;;;;0.10;0.10;;;;;;;;;;6185259;23;20118;-88
2023/09/01 08:52:47;;;;;;;0.10;0.10;;;;;;;;;;6133799;23;20013;-90
2023/09/01 08:55:13;;;;;;;0.10;0.10;;;;;;;;;;6134148;23;20091;-89
2023/09/01 08:57:39;;;;;;;0.10;0.10;;;;;;;;;;6133915;23;20024;-89
2023/09/01 09:00:07;;;;;;;0.10;0.10;;;;;;;;;;6185197;23;20013;-89
2023/09/01 09:02:34;;;;;;;0.20;0.20;;;;;;;;;;6133564;23;20020;-89
2023/09/01 09:05:00;;;;;;;0.10;0.10;;;;;;;;;;6158407;23;20013;-88
2023/09/01 09:07:26;;;;;;;0.10;0.10;;;;;;;;;;6158685;23;20013;-88
2023/09/01 09:09:52;;;;;;;0.10;0.10;;;;;;;;;;6158606;23;20320;-88
2023/09/01 09:12:18;;;;;;;0.10;0.10;;;;;;;;;;6159133;23;20013;-91
2023/09/01 09:14:52;;;;;;;0.10;0.10;;;;;;;;;;6134231;23;20091;-88
2023/09/01 09:17:18;;;;;;;0.10;0.10;;;;;;;;;;6134140;23;20095;-89
2023/09/01 09:19:54;;;;;;;0.10;0.10;;;;;;;;;;6158531;23;20413;-88
2023/09/01 09:22:20;;;;;;;0.10;0.10;;;;;;;;;;6133478;23;20024;-91
2023/09/01 09:24:46;;;;;;;0.10;0.10;;;;;;;;;;6158379;23;20467;-88
2023/09/01 09:27:16;;;;;;;0.10;0.10;;;;;;;;;;6158378;23;20088;-92
2023/09/01 09:29:42;;;;;;;0.10;0.10;;;;;;;;;;6158538;23;20013;-90
2023/09/01 09:32:15;;;;;;;0.10;0.10;;;;;;;;;;6183070;23;20009;-90
2023/09/01 09:34:41;;;;;;;0.10;0.10;;;;;;;;;;6158730;23;20008;-90
2023/09/01 09:37:16;;;;;;;0.10;0.10;;;;;;;;;;6158800;23;20431;-90
2023/09/01 09:39:43;;;;;;;0.10;0.10;;;;;;;;;;6158776;23;20019;-89
2023/09/01 09:42:09;;;;;;;0.10;0.10;;;;;;;;;;6158292;23;20074;-90
2023/09/01 09:44:35;;;;;;;0.10;0.10;;;;;;;;;;6158275;23;20017;-90
2023/09/01 09:47:02;;;;;;;0.38;0.38;;;;;;;;;;6158459;23;20028;-88
2023/09/01 09:49:31;;;;;;;0.10;0.10;;;;;;;;;;6158992;23;20016;-91
2023/09/01 09:51:57;;;;;;;0.10;0.10;;;;;;;;;;6158441;23;20019;-89
2023/09/01 09:54:23;;;;;;;0.10;0.10;;;;;;;;;;6158068;23;20049;-88
2023/09/01 09:56:50;;;;;;;0.10;0.10;;;;;;;;;;6158668;23;20012;-88
2023/09/01 09:59:16;;;;;;;0.10;0.10;;;;;;;;;;6182837;23;20013;-88
2023/09/01 10:01:44;;;;;;;0.17;0.17;;;;;;;;;;6133400;23;20013;-88
2023/09/01 10:04:10;;;;;;;0.10;0.10;;;;;;;;;;6133266;23;20466;-88
2023/09/01 10:06:36;;;;;;;0.10;0.10;;;;;;;;;;6133618;23;20403;-89
2023/09/01 10:09:05;;;;;;;0.10;0.10;;;;;;;;;;6160257;23;20067;-90
2023/09/01 10:11:31;;;;;;;0.10;0.10;;;;;;;;;;6158884;23;20013;-90
2023/09/01 10:13:57;;;;;;;0.20;0.20;;;;;;;;;;6158049;23;20382;-90
2023/09/01 10:16:23;;;;;;;0.10;0.10;;;;;;;;;;6158561;23;20019;-91
2023/09/01 10:18:50;;;;;;;0.10;0.10;;;;;;;;;;6158169;23;20088;-90
2023/09/01 10:21:16;;;;;;;0.10;0.10;;;;;;;;;;6156824;23;20084;-89
2023/09/01 10:23:42;;;;;;;0.10;0.10;;;;;;;;;;6158144;23;20009;-88
2023/09/01 10:26:12;;;;;;;0.10;0.10;;;;;;;;;;6158039;23;20228;-88
2023/09/01 10:28:54;;;;;;;0.10;0.10;;;;;;;;;;6158294;23;20016;-89
2023/09/01 10:31:20;;;;;;;0.10;0.10;;;;;;;;;;6182667;23;20517;-89
2023/09/01 10:33:46;;;;;;;0.10;0.10;;;;;;;;;;6158004;23;20017;-89
2023/09/01 10:36:17;;;;;;;0.20;0.20;;;;;;;;;;6133352;23;20013;-89
2023/09/01 10:38:43;;;;;;;0.10;0.10;;;;;;;;;;6134257;23;20024;-89
2023/09/01 10:41:09;;;;;;;0.10;0.10;;;;;;;;;;6158358;23;20013;-90
2023/09/01 10:43:35;;;;;;;0.10;0.10;;;;;;;;;;6185749;23;20451;-91
2023/09/01 10:46:14;;;;;;;0.10;0.10;;;;;;;;;;6186497;23;20330;-92
2023/09/01 10:48:58;;;;;;;0.10;0.10;;;;;;;;;;6186279;23;20040;-92
2023/09/01 10:51:30;;;;;;;0.10;0.10;;;;;;;;;;6134894;23;20316;-91
2023/09/01 10:54:00;;;;;;;0.10;0.10;;;;;;;;;;6159879;23;20013;-90
2023/09/01 10:56:26;;;;;;;0.10;0.10;;;;;;;;;;6184308;23;20013;-91
2023/09/01 10:58:56;;;;;;;0.10;0.10;;;;;;;;;;6186130;23;20017;-90
2023/09/01 11:01:32;;;;;;;0.10;0.10;;;;;;;;;;6134740;23;20020;-90
2023/09/01 11:04:14;;;;;;;0.10;0.10;;;;;;;;;;6159761;23;20088;-89
2023/09/01 11:06:58;;;;;;;0.10;0.10;;;;;;;;;;6134786;23;20025;-89
2023/09/01 11:09:44;;;;;;;0.10;0.10;;;;;;;;;;6184034;23;20013;-89
2023/09/01 11:12:11;;;;;;;0.10;0.10;;;;;;;;;;6158973;23;20096;-89
2023/09/01 11:14:38;;;;;;;0.20;0.20;;;;;;;;;;6134984;23;20009;-89
2023/09/01 11:17:04;;;;;;;0.15;0.15;;;;;;;;;;6134824;23;20097;-89
2023/09/01 11:19:32;;;;;;;0.28;0.28;;;;;;;;;;6184108;23;20526;-89
2023/09/01 11:21:58;;;;;;;0.10;0.10;;;;;;;;;;6134487;23;20048;-89
2023/09/01 11:24:24;;;;;;;0.10;0.10;;;;;;;;;;6159944;23;20013;-90
2023/09/01 11:26:50;;;;;;;0.20;0.20;;;;;;;;;;6135490;23;20028;-89
2023/09/01 11:29:16;;;;;;;0.30;0.30;;;;;;;;;;6161047;23;20445;-91
2023/09/01 11:31:43;;;;;;;0.10;0.10;;;;;;;;;;6159860;23;20041;-90
2023/09/01 11:34:09;;;;;;;0.10;0.10;;;;;;;;;;6134578;23;20091;-91
2023/09/01 11:36:35;;;;;;;0.10;0.10;;;;;;;;;;6134887;23;20523;-88
2023/09/01 11:39:01;;;;;;;0.10;0.10;;;;;;;;;;6159479;23;20458;-87
2023/09/01 11:41:27;;;;;;;0.10;0.10;;;;;;;;;;6134847;23;20023;-90
2023/09/01 11:43:56;;;;;;;0.10;0.10;;;;;;;;;;6134990;23;20079;-89
2023/09/01 11:46:32;;;;;;;0.10;0.10;;;;;;;;;;6160290;23;20084;-89
2023/09/01 11:48:58;;;;;;;0.10;0.10;;;;;;;;;;6159272;23;20020;-89
2023/09/01 11:51:33;;;;;;;0.20;0.20;;;;;;;;;;6134787;23;20005;-86
2023/09/01 11:53:59;;;;;;;0.10;0.10;;;;;;;;;;6185065;23;20450;-86
2023/09/01 11:56:25;;;;;;;0.30;0.30;;;;;;;;;;6183779;23;20116;-86
2023/09/01 11:58:55;;;;;;;0.30;0.30;;;;;;;;;;6185682;23;20020;-86
2023/09/01 12:01:23;;;;;;;0.10;0.10;;;;;;;;;;6184071;23;20020;-87
2023/09/01 12:03:49;;;;;;;0.32;0.20;;;;;;;;;;6185535;23;20285;-86
2023/09/01 12:06:19;;;;;;;0.20;0.20;;;;;;;;;;6134026;23;20147;-86
2023/09/01 12:08:45;;;;;;;0.10;0.10;;;;;;;;;;6183718;23;20104;-87
2023/09/01 12:11:12;;;;;;;0.10;0.10;;;;;;;;;;6183739;23;20017;-90
2023/09/01 12:13:44;;;;;;;0.20;0.20;;;;;;;;;;6159603;23;20463;-87
2023/09/01 12:16:23;;;;;;;0.20;0.20;;;;;;;;;;6135037;23;20017;-87
2023/09/01 12:18:49;;;;;;;0.10;0.10;;;;;;;;;;6134790;23;20013;-86
2023/09/01 12:21:15;;;;;;;0.20;0.20;;;;;;;;;;6159274;23;20064;-88
2023/09/01 12:23:41;;;;;;;0.17;0.15;;;;;;;;;;6183296;23;20020;-86
2023/09/01 12:26:07;;;;;;;0.20;0.20;;;;;;;;;;6159183;23;20292;-86
2023/09/01 12:28:37;;;;;;;0.40;0.20;;;;;;;;;;6133964;23;20037;-86
2023/09/01 12:31:03;;;;;;;1.25;0.30;;;;;;;;;;6134125;23;20032;-87
2023/09/01 12:33:30;;;;;;;0.10;0.10;;;;;;;;;;6159462;23;20017;-88
2023/09/01 12:35:56;;;;;;;0.10;0.10;;;;;;;;;;6159050;23;20013;-87
2023/09/01 12:38:22;;;;;;;0.20;0.20;;;;;;;;;;6185506;23;20043;-87
2023/09/01 12:40:48;;;;;;;0.20;0.20;;;;;;;;;;6185381;23;20017;-88
2023/09/01 12:43:14;;;;;;;0.10;0.10;;;;;;;;;;6158813;23;20092;-88
2023/09/01 12:45:43;;;;;;;0.20;0.20;;;;;;;;;;6183141;23;20017;-87
2023/09/01 12:48:12;;;;;;;0.10;0.10;;;;;;;;;;6134327;23;20013;-87
2023/09/01 12:50:38;;;;;;;0.10;0.10;;;;;;;;;;6158949;23;20013;-89
2023/09/01 12:53:04;;;;;;;0.10;0.10;;;;;;;;;;6134373;23;20013;-89
2023/09/01 12:55:30;;;;;;;0.20;0.20;;;;;;;;;;6134264;23;20013;-88
2023/09/01 12:57:57;;;;;;;0.20;0.20;;;;;;;;;;6134551;23;20423;-88
2023/09/01 13:00:23;;;;;;;0.20;0.20;;;;;;;;;;6133933;23;20064;-89
2023/09/01 13:02:51;;;;;;;0.10;0.10;;;;;;;;;;6158720;23;20013;-88
2023/09/01 13:05:17;;;;;;;0.10;0.10;;;;;;;;;;6133206;23;20033;-89
2023/09/01 13:07:47;;;;;;;0.10;0.10;;;;;;;;;;6184665;23;20017;-87
2023/09/01 13:10:13;;;;;;;0.20;0.20;;;;;;;;;;6159442;23;20031;-90
2023/09/01 13:12:39;;;;;;;0.10;0.10;;;;;;;;;;6134122;23;20036;-91
2023/09/01 13:15:05;;;;;;;0.20;0.20;;;;;;;;;;6158298;23;20477;-90
2023/09/01 13:17:31;;;;;;;0.10;0.10;;;;;;;;;;6158680;23;20017;-89
2023/09/01 13:19:57;;;;;;;0.20;0.20;;;;;;;;;;6158381;23;20516;-86
2023/09/01 13:22:25;;;;;;;0.20;0.20;;;;;;;;;;6184795;23;20059;-86
2023/09/01 13:24:51;;;;;;;0.10;0.10;;;;;;;;;;6133612;23;20020;-86
2023/09/01 13:27:17;;;;;;;0.15;0.15;;;;;;;;;;6184865;23;20067;-89
2023/09/01 13:29:43;;;;;;;0.20;0.20;;;;;;;;;;6158406;23;20017;-89
2023/09/01 13:32:09;;;;;;;0.20;0.20;;;;;;;;;;6134331;23;20086;-89
2023/09/01 13:34:35;;;;;;;0.10;0.10;;;;;;;;;;6182981;23;20513;-89
2023/09/01 13:37:01;;;;;;;0.10;0.10;;;;;;;;;;6133152;23;20070;-87
2023/09/01 13:39:27;;;;;;;0.10;0.10;;;;;;;;;;6183119;23;20096;-87
2023/09/01 13:41:53;;;;;;;0.10;0.10;;;;;;;;;;6183046;23;20265;-87
2023/09/01 13:44:19;;;;;;;0.10;0.10;;;;;;;;;;6133729;23;20020;-87
2023/09/01 13:46:45;;;;;;;0.10;0.10;;;;;;;;;;6158205;23;20091;-87
2023/09/01 13:49:12;;;;;;;0.10;0.10;;;;;;;;;;6133908;23;20482;-87
2023/09/01 13:51:38;;;;;;;0.10;0.10;;;;;;;;;;6158276;23;20013;-88
2023/09/01 13:54:04;;;;;;;0.98;0.30;;;;;;;;;;6158234;23;20383;-87
2023/09/01 13:56:30;;;;;;;0.10;0.10;;;;;;;;;;6133875;23;20152;-87
2023/09/01 13:58:56;;;;;;;0.20;0.20;;;;;;;;;;6158674;23;20013;-87
2023/09/01 14:01:22;;;;;;;0.20;0.20;;;;;;;;;;6133883;23;20023;-87
2023/09/01 14:03:48;;;;;;;0.20;0.20;;;;;;;;;;6157999;23;20017;-88
2023/09/01 14:06:15;;;;;;;0.10;0.10;;;;;;;;;;6182751;23;20021;-87
2023/09/01 14:08:41;;;;;;;0.20;0.20;;;;;;;;;;6158754;23;20019;-88
2023/09/01 14:11:06;;;;;;;0.15;0.15;;;;;;;;;;6158090;23;20088;-88
2023/09/01 14:13:32;;;;;;;0.20;0.20;;;;;;;;;;6182616;23;20013;-87
2023/09/01 14:15:58;;;;;;;0.20;0.20;;;;;;;;;;6182446;23;20079;-89
2023/09/01 14:18:25;;;;;;;0.10;0.10;;;;;;;;;;6133621;23;20013;-87
2023/09/01 14:20:54;;;;;;;0.20;0.20;;;;;;;;;;6158515;23;20020;-87
2023/09/01 14:23:20;;;;;;;0.10;0.10;;;;;;;;;;6158605;23;20390;-88
2023/09/01 14:25:47;;;;;;;0.10;0.10;;;;;;;;;;6182671;23;20041;-87
2023/09/01 14:28:13;;;;;;;0.10;0.10;;;;;;;;;;6158083;23;20020;-88
2023/09/01 14:30:39;;;;;;;0.15;0.15;;;;;;;;;;6158985;23;20013;-88
2023/09/01 14:33:05;;;;;;;0.10;0.10;;;;;;;;;;6157996;23;20009;-88
2023/09/01 14:35:31;;;;;;;0.20;0.20;;;;;;;;;;6133780;23;20076;-88
2023/09/01 14:37:57;;;;;;;0.10;0.10;;;;;;;;;;6133391;23;20495;-87
2023/09/01 14:40:23;;;;;;;0.32;0.32;;;;;;;;;;6157901;23;20099;-87
2023/09/01 14:42:49;;;;;;;0.20;0.20;;;;;;;;;;6133197;23;20013;-88